Terminal Aerodrome Forecast
Issued by NWS

Home | Current Version | Previous Version | Text Only | Print | Product List | Glossary On
Versions: 1 2 3 4 5 6 7 8 9 10 11 12 13 14 15
000
FTUS43 KAPX 301736
TAFMBL
TAF
KMBL 301736Z 3018/3118 30011G19KT P6SM SCT100 BKN250
     FM302300 10005KT P6SM SCT050 OVC100
     FM310400 07007KT 4SM -SNRA OVC015
     FM311300 02007KT P6SM VCSH OVC030
      AMD LTD TO CLD VIS AND WIND=

USA.gov is the U.S. government's official web portal to all federal, state and local government web resources and services.